createdAt,value
2023-07-17T00:00:32.054Z,12.40
2023-07-17T00:03:09.549Z,12.40
2023-07-17T00:05:39.867Z,12.40
2023-07-17T00:08:10.965Z,12.30
2023-07-17T00:10:42.072Z,12.30
2023-07-17T00:13:15.417Z,12.10
2023-07-17T00:15:48.609Z,12.00
2023-07-17T00:18:21.823Z,12.00
2023-07-17T00:20:52.554Z,11.80
2023-07-17T00:23:22.683Z,11.80
2023-07-17T00:25:52.747Z,11.90
2023-07-17T00:28:22.988Z,11.90
2023-07-17T00:30:53.626Z,12.00
2023-07-17T00:33:26.499Z,12.00
2023-07-17T00:35:58.194Z,12.00
2023-07-17T00:38:29.025Z,12.00
2023-07-17T00:40:59.350Z,12.20
2023-07-17T00:43:29.444Z,12.30
2023-07-17T00:46:01.125Z,12.20
2023-07-17T00:48:36.050Z,12.30
2023-07-17T00:51:09.520Z,12.20
2023-07-17T00:53:39.959Z,12.20
2023-07-17T00:56:10.055Z,12.20
2023-07-17T00:58:40.825Z,12.30
2023-07-17T01:01:14.574Z,12.40
2023-07-17T01:03:48.580Z,12.40
2023-07-17T01:06:18.784Z,12.30
2023-07-17T01:08:52.632Z,12.40
2023-07-17T01:11:22.926Z,12.50
2023-07-17T01:13:55.097Z,12.40
2023-07-17T01:16:25.387Z,12.40
2023-07-17T01:18:58.229Z,12.50
2023-07-17T01:21:31.919Z,12.50
2023-07-17T01:24:04.612Z,12.70
2023-07-17T01:26:34.883Z,12.80
2023-07-17T01:29:04.978Z,12.90
2023-07-17T01:31:35.320Z,13.10
2023-07-17T01:34:05.451Z,13.20
2023-07-17T01:36:37.900Z,13.30
2023-07-17T01:39:10.630Z,13.40
2023-07-17T01:41:52.889Z,13.50
2023-07-17T01:44:29.626Z,13.60
2023-07-17T01:46:59.883Z,13.70
2023-07-17T01:49:30.183Z,13.60
2023-07-17T01:52:10.863Z,13.60
2023-07-17T01:55:17.771Z,13.70
2023-07-17T01:57:48.395Z,13.70
2023-07-17T02:00:21.383Z,13.70
2023-07-17T02:02:54.865Z,13.80
2023-07-17T02:05:37.727Z,13.70
2023-07-17T02:11:32.052Z,13.70
2023-07-17T02:14:08.976Z,13.90
2023-07-17T02:16:55.931Z,13.90
2023-07-17T02:19:29.580Z,14.00
2023-07-17T02:22:08.625Z,14.00
2023-07-17T02:24:38.845Z,14.00
2023-07-17T02:27:14.686Z,14.00
2023-07-17T02:29:50.857Z,14.00
2023-07-17T02:32:21.243Z,14.00
2023-07-17T02:34:51.313Z,14.00
2023-07-17T02:37:28.188Z,13.90
2023-07-17T02:40:20.848Z,13.90
2023-07-17T02:42:52.609Z,13.80
2023-07-17T02:45:22.968Z,13.80
2023-07-17T02:47:53.933Z,13.70
2023-07-17T02:50:24.547Z,13.70
2023-07-17T02:52:54.726Z,13.60
2023-07-17T02:55:34.147Z,13.60
2023-07-17T02:58:07.019Z,13.60
2023-07-17T03:00:38.575Z,13.60
2023-07-17T03:03:11.063Z,13.50
2023-07-17T03:05:43.230Z,13.50
2023-07-17T03:08:20.372Z,13.40
2023-07-17T03:10:53.575Z,13.40
2023-07-17T03:13:26.695Z,13.40
2023-07-17T03:16:21.944Z,13.20
2023-07-17T03:19:25.584Z,13.10
2023-07-17T03:22:07.306Z,13.10
2023-07-17T03:24:37.882Z,13.20
2023-07-17T03:27:20.562Z,13.10
2023-07-17T03:29:53.658Z,13.00
2023-07-17T03:32:30.244Z,12.90
2023-07-17T03:35:01.014Z,12.90
2023-07-17T03:37:31.687Z,12.80
2023-07-17T03:40:11.587Z,12.90
2023-07-17T03:42:42.504Z,12.90
2023-07-17T03:45:17.649Z,12.80
2023-07-17T03:47:50.062Z,12.70
2023-07-17T03:50:27.031Z,12.80
2023-07-17T03:52:59.462Z,12.90
2023-07-17T03:55:33.842Z,12.80
2023-07-17T03:58:09.246Z,12.90
2023-07-17T04:00:45.404Z,12.80
2023-07-17T04:03:16.078Z,12.50
2023-07-17T04:05:52.122Z,12.50
2023-07-17T04:08:22.794Z,12.50
2023-07-17T04:10:56.216Z,12.60
2023-07-17T04:13:26.643Z,12.60
2023-07-17T04:16:04.366Z,12.70
2023-07-17T04:18:37.259Z,12.80
2023-07-17T04:21:07.525Z,12.90
2023-07-17T04:23:38.045Z,13.10
2023-07-17T04:26:11.139Z,13.40
2023-07-17T04:28:44.549Z,13.80
2023-07-17T04:31:18.139Z,14.10
2023-07-17T04:33:52.939Z,14.50
2023-07-17T04:36:25.938Z,14.70
2023-07-17T04:38:59.958Z,15.00
2023-07-17T04:41:31.156Z,15.20
2023-07-17T04:44:01.965Z,15.40
2023-07-17T04:46:35.092Z,15.70
2023-07-17T04:49:05.565Z,15.70
2023-07-17T04:51:35.938Z,15.60
2023-07-17T04:54:06.551Z,15.80
2023-07-17T04:56:37.373Z,16.00
2023-07-17T04:59:12.751Z,16.10
2023-07-17T05:01:49.682Z,16.20
2023-07-17T05:04:24.027Z,16.10
2023-07-17T05:06:56.204Z,16.20
2023-07-17T05:09:29.382Z,16.40
2023-07-17T05:12:06.210Z,16.60
2023-07-17T05:14:41.590Z,16.80
2023-07-17T05:17:29.886Z,16.60
2023-07-17T05:20:01.661Z,16.70
2023-07-17T05:22:35.424Z,16.80
2023-07-17T05:25:08.835Z,17.00
2023-07-17T05:27:56.368Z,17.00
2023-07-17T05:30:34.545Z,17.10
2023-07-17T05:33:09.694Z,17.40
2023-07-17T05:35:53.753Z,17.60
2023-07-17T05:38:28.206Z,17.60
2023-07-17T05:41:10.394Z,17.30
2023-07-17T05:43:42.337Z,17.20
2023-07-17T05:46:16.281Z,17.20
2023-07-17T05:48:49.566Z,17.20
2023-07-17T05:51:23.343Z,17.30
2023-07-17T05:53:53.883Z,17.30
2023-07-17T05:56:24.241Z,17.50
2023-07-17T05:58:54.427Z,17.60
2023-07-17T06:01:24.836Z,17.70
2023-07-17T06:03:58.081Z,17.70
2023-07-17T06:06:31.710Z,17.90
2023-07-17T06:09:06.327Z,17.60
2023-07-17T06:11:36.649Z,17.60
2023-07-17T06:14:07.180Z,17.70
2023-07-17T06:16:37.859Z,17.90
2023-07-17T06:19:11.330Z,17.80
2023-07-17T06:21:46.636Z,18.00
2023-07-17T06:24:17.242Z,18.10
2023-07-17T06:26:49.689Z,18.30
2023-07-17T06:29:19.938Z,18.30
2023-07-17T06:31:51.100Z,18.00
2023-07-17T06:34:24.050Z,17.90
2023-07-17T06:36:54.550Z,17.50
2023-07-17T06:39:24.675Z,17.90
2023-07-17T06:41:54.807Z,17.70
2023-07-17T06:44:25.893Z,18.00
2023-07-17T06:46:56.683Z,17.50
2023-07-17T06:49:29.458Z,17.70
2023-07-17T06:51:59.719Z,18.00
2023-07-17T06:54:34.623Z,18.20
2023-07-17T06:57:13.864Z,18.40
2023-07-17T06:59:44.313Z,18.00
2023-07-17T07:02:15.252Z,17.80
2023-07-17T07:04:49.193Z,18.40
2023-07-17T07:07:22.236Z,18.90
2023-07-17T07:09:52.750Z,19.50
2023-07-17T07:12:23.065Z,19.30
2023-07-17T07:14:53.476Z,18.90
2023-07-17T07:17:24.236Z,18.60
2023-07-17T07:19:59.162Z,18.60
2023-07-17T07:22:29.617Z,18.50
2023-07-17T07:25:00.652Z,18.50
2023-07-17T07:27:33.406Z,18.70
2023-07-17T07:30:05.786Z,19.00
2023-07-17T07:32:36.240Z,19.20
2023-07-17T07:35:10.690Z,19.50
2023-07-17T07:37:41.632Z,19.60
2023-07-17T07:40:14.688Z,19.60
2023-07-17T07:45:40.148Z,19.90
2023-07-17T07:48:15.287Z,20.10
2023-07-17T07:50:54.279Z,19.70
2023-07-17T07:53:26.828Z,19.20
2023-07-17T07:56:03.185Z,19.20
2023-07-17T07:58:33.895Z,19.40
2023-07-17T08:01:06.312Z,19.50
2023-07-17T08:03:39.597Z,19.60
2023-07-17T08:06:15.634Z,19.80
2023-07-17T08:08:57.657Z,19.90
2023-07-17T08:11:31.925Z,19.70
2023-07-17T08:14:02.753Z,19.70
2023-07-17T08:16:50.625Z,19.80
2023-07-17T08:19:27.982Z,20.00
2023-07-17T08:22:04.316Z,20.40
2023-07-17T08:24:38.674Z,20.70
2023-07-17T08:27:09.835Z,20.80
2023-07-17T08:29:43.134Z,20.80
2023-07-17T08:32:16.697Z,20.70
2023-07-17T08:34:47.593Z,19.90
2023-07-17T08:37:20.780Z,20.40
2023-07-17T08:39:53.531Z,20.70
2023-07-17T08:42:29.454Z,21.10
2023-07-17T08:45:01.949Z,21.40
2023-07-17T08:47:32.692Z,20.90
2023-07-17T08:50:04.704Z,20.60
2023-07-17T08:52:38.327Z,19.20
2023-07-17T08:55:12.574Z,19.20
2023-07-17T08:57:45.883Z,19.70
2023-07-17T09:00:20.028Z,19.90
2023-07-17T09:02:51.509Z,20.50
2023-07-17T09:05:22.230Z,20.90
2023-07-17T09:07:59.864Z,21.60
2023-07-17T09:10:33.218Z,22.00
2023-07-17T09:13:08.640Z,22.00
2023-07-17T09:15:39.940Z,22.00
2023-07-17T09:18:11.347Z,22.00
2023-07-17T09:20:48.525Z,22.30
2023-07-17T09:23:22.580Z,22.60
2023-07-17T09:25:55.972Z,22.70
2023-07-17T09:28:32.706Z,22.70
2023-07-17T09:31:09.880Z,22.40
2023-07-17T09:33:43.451Z,21.50
2023-07-17T09:36:16.571Z,20.60
2023-07-17T09:38:54.069Z,20.00
2023-07-17T09:41:46.829Z,20.20
2023-07-17T09:44:21.781Z,20.60
2023-07-17T09:46:52.689Z,20.80
2023-07-17T09:49:24.133Z,21.00
2023-07-17T09:51:54.870Z,21.10
2023-07-17T09:54:28.127Z,20.90
2023-07-17T09:56:59.683Z,20.90
2023-07-17T09:59:36.317Z,20.20
2023-07-17T10:02:09.221Z,20.30
2023-07-17T10:04:46.175Z,20.80
2023-07-17T10:07:17.889Z,20.90
2023-07-17T10:09:52.646Z,21.00
2023-07-17T10:12:23.387Z,21.20
2023-07-17T10:14:53.561Z,21.70
2023-07-17T10:17:27.541Z,21.40
2023-07-17T10:20:00.427Z,21.60
2023-07-17T10:22:40.051Z,22.20
2023-07-17T10:25:29.942Z,21.70
2023-07-17T10:28:01.680Z,21.20
2023-07-17T10:30:33.376Z,21.30
2023-07-17T10:33:11.264Z,21.90
2023-07-17T10:35:51.865Z,22.20
2023-07-17T10:38:26.298Z,20.70
2023-07-17T10:41:08.751Z,20.30
2023-07-17T10:43:39.048Z,20.40
2023-07-17T10:46:12.324Z,20.30
2023-07-17T10:48:44.832Z,20.30
2023-07-17T10:51:17.110Z,20.20
2023-07-17T10:53:47.601Z,20.10
2023-07-17T10:56:21.793Z,20.40
2023-07-17T10:58:52.872Z,20.60
2023-07-17T11:01:23.256Z,20.50
2023-07-17T11:03:54.782Z,20.80
2023-07-17T11:06:29.553Z,20.60
2023-07-17T11:08:59.608Z,20.30
2023-07-17T11:11:33.352Z,20.30
2023-07-17T11:14:04.136Z,20.60
2023-07-17T11:16:36.607Z,21.30
2023-07-17T11:19:06.999Z,22.00
2023-07-17T11:21:37.161Z,22.60
2023-07-17T11:24:11.238Z,23.20
2023-07-17T11:26:44.328Z,22.50
2023-07-17T11:29:16.006Z,21.50
2023-07-17T11:31:46.179Z,21.40
2023-07-17T11:34:19.297Z,21.40
2023-07-17T11:36:50.907Z,21.80
2023-07-17T11:39:22.547Z,22.50
2023-07-17T11:41:56.155Z,23.10
2023-07-17T11:44:28.955Z,23.20
2023-07-17T11:47:00.877Z,23.00
2023-07-17T11:49:32.499Z,23.10
2023-07-17T11:52:02.579Z,22.90
2023-07-17T11:54:32.905Z,23.10
2023-07-17T11:57:05.756Z,23.50
2023-07-17T11:59:39.005Z,23.30
2023-07-17T12:02:09.670Z,23.40
2023-07-17T12:04:45.567Z,23.90
2023-07-17T12:07:23.941Z,23.20
2023-07-17T12:09:55.309Z,21.10
2023-07-17T12:12:29.423Z,20.00
2023-07-17T12:14:59.423Z,20.40
2023-07-17T12:17:30.186Z,20.50
2023-07-17T12:20:00.339Z,20.10
2023-07-17T12:22:30.766Z,20.00
2023-07-17T12:25:01.153Z,20.20
2023-07-17T12:27:34.553Z,20.80
2023-07-17T12:30:04.928Z,21.30
2023-07-17T12:32:34.958Z,21.40
2023-07-17T12:35:04.981Z,21.60
2023-07-17T12:37:35.502Z,22.10
2023-07-17T12:40:06.798Z,22.10
2023-07-17T12:42:41.020Z,21.10
2023-07-17T12:45:12.196Z,21.10
2023-07-17T12:47:42.253Z,20.80
2023-07-17T12:50:12.877Z,20.90
2023-07-17T12:52:42.945Z,21.70
2023-07-17T12:55:13.301Z,21.50
2023-07-17T12:57:45.903Z,20.70
2023-07-17T13:00:16.987Z,20.80
2023-07-17T13:02:48.110Z,21.40
2023-07-17T13:05:18.701Z,21.40
2023-07-17T13:07:51.436Z,20.80
2023-07-17T13:10:21.988Z,20.50
2023-07-17T13:12:55.140Z,20.20
2023-07-17T13:15:25.741Z,20.30
2023-07-17T13:17:55.831Z,20.60
2023-07-17T13:20:25.902Z,20.60
2023-07-17T13:22:56.084Z,20.30
2023-07-17T13:25:26.331Z,20.10
2023-07-17T13:27:58.942Z,20.40
2023-07-17T13:30:31.170Z,19.80
2023-07-17T13:33:01.681Z,19.80
2023-07-17T13:35:32.231Z,20.20
2023-07-17T13:38:02.207Z,21.00
2023-07-17T13:40:32.706Z,21.10
2023-07-17T13:43:06.265Z,22.00
2023-07-17T13:45:36.317Z,22.80
2023-07-17T13:48:06.653Z,22.50
2023-07-17T13:50:36.854Z,21.70
2023-07-17T13:53:06.971Z,20.60
2023-07-17T13:55:37.109Z,20.10
2023-07-17T13:58:15.759Z,20.00
2023-07-17T14:00:46.232Z,20.10
2023-07-17T14:03:18.435Z,20.00
2023-07-17T14:05:49.062Z,19.90
2023-07-17T14:08:19.489Z,20.50
2023-07-17T14:10:49.650Z,20.90
2023-07-17T14:13:23.234Z,21.00
2023-07-17T14:15:53.332Z,20.90
2023-07-17T14:18:23.958Z,20.40
2023-07-17T14:20:56.314Z,20.40
2023-07-17T14:23:26.437Z,20.50
2023-07-17T14:25:56.792Z,20.80
2023-07-17T14:28:29.750Z,21.80
2023-07-17T14:30:59.792Z,22.30
2023-07-17T14:33:29.797Z,22.70
2023-07-17T14:35:59.997Z,23.00
2023-07-17T14:38:30.163Z,22.60
2023-07-17T14:41:00.636Z,21.50
2023-07-17T14:43:33.258Z,20.80
2023-07-17T14:46:03.647Z,20.30
2023-07-17T14:48:34.724Z,20.20
2023-07-17T14:51:05.351Z,19.90
2023-07-17T14:53:35.485Z,19.90
2023-07-17T14:56:05.636Z,19.80
2023-07-17T14:58:38.293Z,19.90
2023-07-17T15:01:08.787Z,20.30
2023-07-17T15:03:39.168Z,20.30
2023-07-17T15:06:09.359Z,20.40
2023-07-17T15:08:39.581Z,20.70
2023-07-17T15:11:09.833Z,20.80
2023-07-17T15:13:43.226Z,20.70
2023-07-17T15:16:13.282Z,20.70
2023-07-17T15:18:45.257Z,20.70
2023-07-17T15:21:15.405Z,20.90
2023-07-17T15:23:45.438Z,21.10
2023-07-17T15:26:15.470Z,21.20
2023-07-17T15:28:48.983Z,21.50
2023-07-17T15:31:19.068Z,20.90
2023-07-17T15:33:49.562Z,21.00
2023-07-17T15:36:19.834Z,21.00
2023-07-17T15:38:50.051Z,21.20
2023-07-17T15:41:20.573Z,21.00
2023-07-17T15:43:53.229Z,21.20
2023-07-17T15:46:24.723Z,21.00
2023-07-17T15:48:55.082Z,20.60
2023-07-17T15:51:25.206Z,20.60
2023-07-17T15:53:56.611Z,20.60
2023-07-17T15:56:27.432Z,20.90
2023-07-17T15:59:05.092Z,20.70
2023-07-17T16:01:35.839Z,20.50
2023-07-17T16:04:06.997Z,20.70
2023-07-17T16:06:37.492Z,20.20
2023-07-17T16:09:09.010Z,19.90
2023-07-17T16:11:39.740Z,19.80
2023-07-17T16:14:13.058Z,20.10
2023-07-17T16:16:43.190Z,20.00
2023-07-17T16:19:14.565Z,19.90
2023-07-17T16:21:56.705Z,20.30
2023-07-17T16:24:28.370Z,21.10
2023-07-17T16:27:00.970Z,21.20
2023-07-17T16:29:34.254Z,21.50
2023-07-17T16:32:04.968Z,21.20
2023-07-17T16:34:35.641Z,20.90
2023-07-17T16:37:06.055Z,20.40
2023-07-17T16:39:37.524Z,19.90
2023-07-17T16:42:09.061Z,20.20
2023-07-17T16:44:42.744Z,20.50
2023-07-17T16:47:13.679Z,20.50
2023-07-17T16:49:43.863Z,20.10
2023-07-17T16:52:14.327Z,20.10
2023-07-17T16:54:48.172Z,19.70
2023-07-17T16:57:18.941Z,19.50
2023-07-17T16:59:55.512Z,19.40
2023-07-17T17:02:26.077Z,19.40
2023-07-17T17:05:03.163Z,19.80
2023-07-17T17:07:33.526Z,20.20
2023-07-17T17:10:04.119Z,20.80
2023-07-17T17:12:34.393Z,21.00
2023-07-17T17:15:09.835Z,20.30
2023-07-17T17:17:41.482Z,20.40
2023-07-17T17:20:15.794Z,20.00
2023-07-17T17:23:01.438Z,19.90
2023-07-17T17:25:32.640Z,19.70
2023-07-17T17:28:03.814Z,19.70
2023-07-17T17:30:39.848Z,19.60
2023-07-17T17:33:17.408Z,19.30
2023-07-17T17:35:47.864Z,19.10
2023-07-17T17:38:39.890Z,19.00
2023-07-17T17:41:10.139Z,19.00
2023-07-17T17:43:41.207Z,18.90
2023-07-17T17:46:14.271Z,18.90
2023-07-17T17:48:45.637Z,18.90
2023-07-17T17:51:20.090Z,18.80
2023-07-17T17:53:51.949Z,18.70
2023-07-17T17:59:06.879Z,18.60
2023-07-17T18:01:40.787Z,18.50
2023-07-17T18:04:11.425Z,18.40
2023-07-17T18:06:42.421Z,18.40
2023-07-17T18:09:14.973Z,18.30
2023-07-17T18:11:45.519Z,18.30
2023-07-17T18:14:16.208Z,18.20
2023-07-17T18:16:51.696Z,18.20
2023-07-17T18:19:29.665Z,17.60
2023-07-17T18:21:59.628Z,15.30
2023-07-17T18:24:29.609Z,13.70
2023-07-17T18:26:59.564Z,13.20
2023-07-17T18:29:29.576Z,12.80
2023-07-17T18:32:02.700Z,12.80
2023-07-17T18:34:33.914Z,12.70
2023-07-17T18:37:06.447Z,12.80
2023-07-17T18:39:36.991Z,12.90
2023-07-17T18:42:07.672Z,12.90
2023-07-17T18:44:40.527Z,12.60
2023-07-17T18:47:19.303Z,12.60
2023-07-17T18:50:05.166Z,12.70
2023-07-17T18:52:41.847Z,12.40
2023-07-17T18:55:16.644Z,12.60
2023-07-17T18:57:47.755Z,12.80
2023-07-17T19:00:21.653Z,12.80
2023-07-17T19:03:21.431Z,12.90
2023-07-17T19:05:54.928Z,13.00
2023-07-17T19:08:50.535Z,13.10
2023-07-17T19:11:47.640Z,13.00
2023-07-17T19:14:30.957Z,13.20
2023-07-17T19:17:12.347Z,13.10
2023-07-17T19:19:46.922Z,13.10
2023-07-17T19:22:17.934Z,13.20
2023-07-17T19:24:49.275Z,13.30
2023-07-17T19:27:27.258Z,13.40
2023-07-17T19:30:47.583Z,13.40
2023-07-17T19:36:24.177Z,13.40
2023-07-17T19:39:02.336Z,13.50
2023-07-17T19:41:58.159Z,13.50
2023-07-17T19:44:37.082Z,13.50
2023-07-17T19:47:11.092Z,13.40
2023-07-17T19:56:47.429Z,13.00
2023-07-17T20:00:24.416Z,13.00
